CYBX

Details ICAO CYBX (YBX)
Name LOURDES DE BLANC SABLON
Region Canada
Timezone America/Blanc-Sablon (UTC-4.0)
Plans Departing 10
Arriving 5
Stats Elevation 121 ft / 37 m (AMSL)
Location 51.442107° -57.186311°
Runways 1
Magnetic Variation 19.935° W
Sunrise 2018-05-25 07:45:38 UTC / 2018-05-25 03:45:38 Local
Sunset 2018-05-25 23:48:38 UTC / 2018-05-25 19:48:38 Local
Advertisement - Login to hide

Runways

ID Width Length Bearing (true) Bearing (mag) Surface Threshold Offset Overrun Length
05 150 ft / 46 m 4,492 ft / 1,369 m 27.43° 47.36° Asphalt 0 ft / 0 m 0 ft / 0 m
23 150 ft / 46 m 4,492 ft / 1,369 m 207.44° 227.37° Asphalt 0 ft / 0 m 0 ft / 0 m

Approach Navaids

Runway Type Ident Frequency Range Bearing (true) Bearing (mag) Slope Elevation
05 Localiser IBX 109.10 MHz 18 nm / 33 km 28.11° 48.04° - 121 ft / 37 m (AMSL)

Map

Weather


0- 5 10 15 20 25 30 35+ Temperature / ° C

Clouds and Precipitation
Forecast for 2018-05-25 18:00 UTC. Updated 2 hours ago

Ground ~20,000 ft ~40,000 ft Winds

METAR

CYBX 251900Z 08015KT 15SM FEW030 08/M04 A2971 RMK SC1 SC TR SLP063

TAF

TAF CYBX 251338Z 2514/2602 16008KT P6SM SCT050 TEMPO 2514/2520 6SM -RASN BKN050 BECMG 2514/2516 08010KT FM252000 08010KT P6SM FEW050 BECMG 2600/2602 SCT020 RMK NXT FCST BY 252000Z
Warning: Do not use this data for real-world aviation or navigation. No guarantee of current accuracy is given.